Mr. Mag — WDE7813 — position and weather

sailwx.info

Track history (hours):
 
Tides and Currents Weather Stations Pressure Air Temp Water Temp Dewpoint Dewpoint Depression Visibility Wind Speed Wind Dir Waves Ship Positions

Mr. Mag

Owner: Tandi Marine, Inc., Larose, LA. More information available from US FCC via Universal Licensing System and Coast Guard Vessel Documentation Center.

Last reported at 2016-Aug-22 13:34 UTC. Time now 2016-Aug-24 01:37 UTC.
Position N 29°35' W 092°18'.

Length 46 m; draft 2.5 m.

Type: Passenger vessel. MMSI: 367397990.

Date/timePositionNaut miles runAvg speedWind from/ knotsBaromVisibWave heightAir tempDewpointWater temp
2016-Aug-22 13:34N 29°35' W 092°18'1312.7
2016-Aug-22 12:33N 29°47' W 092°11'0 0.0
2016-Aug-22 11:33N 29°47' W 092°11'0 0.0
2016-Aug-22 10:34N 29°47' W 092°11'0 0.0
2016-Aug-22 09:33N 29°47' W 092°11'0 0.0
2016-Aug-22 08:33N 29°47' W 092°11'0 0.0
2016-Aug-22 07:34N 29°47' W 092°11'0 0.0
2016-Aug-22 06:34N 29°47' W 092°11'0 0.0
2016-Aug-22 05:33N 29°47' W 092°11'0 0.0
2016-Aug-22 04:33N 29°47' W 092°11'0 0.0
2016-Aug-22 03:33N 29°47' W 092°11'0 0.3
2016-Aug-22 02:34N 29°47' W 092°11'0 0.3
2016-Aug-22 01:34N 29°47' W 092°11'1313.1
2016-Aug-22 00:34N 29°35' W 092°18'6 0.3
2016-Aug-21 07:03N 29°29' W 092°19'612.6
2016-Aug-21 06:33N 29°36' W 092°18'1312.6
2016-Aug-21 05:34N 29°47' W 092°11'0 0.0
2016-Aug-21 04:33N 29°47' W 092°11'0 0.0
2016-Aug-21 03:34N 29°47' W 092°11'1211.8
2016-Aug-21 02:34N 29°36' W 092°17'3 0.2
2016-Aug-20 07:33N 29°33' W 092°18'1514.9
2016-Aug-20 06:33N 29°47' W 092°11'0 0.2
2016-Aug-20 05:33N 29°47' W 092°11'0 0.0
2016-Aug-20 04:33N 29°47' W 092°11'0 0.0
2016-Aug-20 03:33N 29°47' W 092°11'0 0.0
2016-Aug-20 02:34N 29°47' W 092°11'9 8.5
2016-Aug-20 01:33N 29°39' W 092°16'6 0.3
2016-Aug-19 07:33N 29°34' W 092°18'1514.5
2016-Aug-19 06:33N 29°47' W 092°11'0 0.0
2016-Aug-19 05:33N 29°47' W 092°11'0 0.0
2016-Aug-19 04:33N 29°47' W 092°11'0 0.0
2016-Aug-19 03:33N 29°47' W 092°11'0 0.0
2016-Aug-19 02:33N 29°47' W 092°11'0 0.0
2016-Aug-19 01:33N 29°47' W 092°11'0 0.0
2016-Aug-19 00:33N 29°47' W 092°11'0 0.0
2016-Aug-18 23:33N 29°47' W 092°11'0 0.0
2016-Aug-18 22:33N 29°47' W 092°11'0 0.0
2016-Aug-18 21:33N 29°47' W 092°11'0 0.0
2016-Aug-18 20:33N 29°47' W 092°11'0 0.0
2016-Aug-18 19:34N 29°47' W 092°11'3 2.7
2016-Aug-18 18:33N 29°45' W 092°13'13 1.1
2016-Aug-18 06:33N 29°33' W 092°18'1615.7
2016-Aug-18 05:34N 29°46' W 092°10'1 0.8
2016-Aug-18 04:33N 29°47' W 092°11'0 0.0
2016-Aug-18 03:33N 29°47' W 092°11'0 0.3
2016-Aug-18 02:34N 29°47' W 092°11'0 0.0
2016-Aug-18 01:33N 29°47' W 092°11'0 0.0
2016-Aug-18 00:33N 29°47' W 092°11'1 0.6
2016-Aug-17 23:33N 29°46' W 092°11'25 1.5
2016-Aug-17 07:08N 29°25' W 092°26'1016.9
2016-Aug-17 06:34N 29°33' W 092°18'1615.6
2016-Aug-17 05:34N 29°47' W 092°10'1 0.7
2016-Aug-17 04:34N 29°47' W 092°11'0 0.0
2016-Aug-17 03:33N 29°47' W 092°11'0 0.0
2016-Aug-17 02:33N 29°47' W 092°11'0 0.0
2016-Aug-17 01:34N 29°47' W 092°11'0 0.0
2016-Aug-17 00:34N 29°47' W 092°11'1313.2
2016-Aug-16 23:33N 29°35' W 092°18'13 0.7
2016-Aug-16 04:30N 29°47' W 092°11'0 0.0
2016-Aug-16 03:34N 29°47' W 092°11'0 0.0
2016-Aug-16 02:34N 29°47' W 092°11'0 0.0
2016-Aug-16 01:34N 29°47' W 092°11'0 0.0
2016-Aug-16 00:34N 29°47' W 092°11'0 0.0
2016-Aug-15 23:33N 29°47' W 092°11'0 0.0
2016-Aug-15 22:33N 29°47' W 092°11'1413.9
2016-Aug-15 21:32N 29°34' W 092°18'5212.0
2016-Aug-15 17:13N 29°41' W 093°17'711.2
2016-Aug-15 16:33N 29°48' W 093°21'2 1.5
2016-Aug-15 15:33N 29°49' W 093°20'0 0.1
2016-Aug-15 14:33N 29°49' W 093°20'8 8.2
2016-Aug-15 13:33N 29°41' W 093°18'7 0.6
2016-Aug-15 03:13N 29°40' W 093°10'1115.9
2016-Aug-15 02:33N 29°45' W 093°21'4 3.8
2016-Aug-15 01:30N 29°49' W 093°20'4 3.7
2016-Aug-15 00:34N 29°46' W 093°21'56 4.3
2016-Aug-14 11:29N 29°32' W 092°18'0 0.0
2016-Aug-14 10:31N 29°32' W 092°18'0 0.0
2016-Aug-14 09:32N 29°32' W 092°18'0 0.0
2016-Aug-14 08:32N 29°32' W 092°18'0 0.0
2016-Aug-14 07:33N 29°32' W 092°18'0 0.0
2016-Aug-14 06:28N 29°32' W 092°18'0 0.0
2016-Aug-14 04:31N 29°32' W 092°18'0 0.0
2016-Aug-14 03:33N 29°32' W 092°18'0 0.0
2016-Aug-14 02:33N 29°32' W 092°18'0 0.0
2016-Aug-14 01:33N 29°32' W 092°18'0 0.0
2016-Aug-14 00:34N 29°32' W 092°18'0 0.0
2016-Aug-13 23:33N 29°32' W 092°18'0 0.0
2016-Aug-13 22:31N 29°32' W 092°18'0 0.0
2016-Aug-13 21:30N 29°32' W 092°18'  
Track history (hours):
 
Tides and Currents Weather Stations Pressure Air Temp Water Temp Dewpoint Dewpoint Depression Visibility Wind Speed Wind Dir Waves Ship Positions

Mr. Mag

Owner: Tandi Marine, Inc., Larose, LA. More information available from US FCC via Universal Licensing System and Coast Guard Vessel Documentation Center.

Last reported at 2016-Aug-22 13:34 UTC. Time now 2016-Aug-24 01:37 UTC.
Position N 29°35' W 092°18'.

Length 46 m; draft 2.5 m.

Type: Passenger vessel. MMSI: 367397990.

Date/timePositionNaut miles runAvg speedWind from/ knotsBaromVisibWave heightAir tempDewpointWater temp
2016-Aug-22 13:34N 29°35' W 092°18'1312.7
2016-Aug-22 12:33N 29°47' W 092°11'0 0.0
2016-Aug-22 11:33N 29°47' W 092°11'0 0.0
2016-Aug-22 10:34N 29°47' W 092°11'0 0.0
2016-Aug-22 09:33N 29°47' W 092°11'0 0.0
2016-Aug-22 08:33N 29°47' W 092°11'0 0.0
2016-Aug-22 07:34N 29°47' W 092°11'0 0.0
2016-Aug-22 06:34N 29°47' W 092°11'0 0.0
2016-Aug-22 05:33N 29°47' W 092°11'0 0.0
2016-Aug-22 04:33N 29°47' W 092°11'0 0.0
2016-Aug-22 03:33N 29°47' W 092°11'0 0.3
2016-Aug-22 02:34N 29°47' W 092°11'0 0.3
2016-Aug-22 01:34N 29°47' W 092°11'1313.1
2016-Aug-22 00:34N 29°35' W 092°18'6 0.3
2016-Aug-21 07:03N 29°29' W 092°19'612.6
2016-Aug-21 06:33N 29°36' W 092°18'1312.6
2016-Aug-21 05:34N 29°47' W 092°11'0 0.0
2016-Aug-21 04:33N 29°47' W 092°11'0 0.0
2016-Aug-21 03:34N 29°47' W 092°11'1211.8
2016-Aug-21 02:34N 29°36' W 092°17'3 0.2
2016-Aug-20 07:33N 29°33' W 092°18'1514.9
2016-Aug-20 06:33N 29°47' W 092°11'0 0.2
2016-Aug-20 05:33N 29°47' W 092°11'0 0.0
2016-Aug-20 04:33N 29°47' W 092°11'0 0.0
2016-Aug-20 03:33N 29°47' W 092°11'0 0.0
2016-Aug-20 02:34N 29°47' W 092°11'9 8.5
2016-Aug-20 01:33N 29°39' W 092°16'6 0.3
2016-Aug-19 07:33N 29°34' W 092°18'1514.5
2016-Aug-19 06:33N 29°47' W 092°11'0 0.0
2016-Aug-19 05:33N 29°47' W 092°11'0 0.0
2016-Aug-19 04:33N 29°47' W 092°11'0 0.0
2016-Aug-19 03:33N 29°47' W 092°11'0 0.0
2016-Aug-19 02:33N 29°47' W 092°11'0 0.0
2016-Aug-19 01:33N 29°47' W 092°11'0 0.0
2016-Aug-19 00:33N 29°47' W 092°11'0 0.0
2016-Aug-18 23:33N 29°47' W 092°11'0 0.0
2016-Aug-18 22:33N 29°47' W 092°11'0 0.0
2016-Aug-18 21:33N 29°47' W 092°11'0 0.0
2016-Aug-18 20:33N 29°47' W 092°11'0 0.0
2016-Aug-18 19:34N 29°47' W 092°11'3 2.7
2016-Aug-18 18:33N 29°45' W 092°13'13 1.1
2016-Aug-18 06:33N 29°33' W 092°18'1615.7
2016-Aug-18 05:34N 29°46' W 092°10'1 0.8
2016-Aug-18 04:33N 29°47' W 092°11'0 0.0
2016-Aug-18 03:33N 29°47' W 092°11'0 0.3
2016-Aug-18 02:34N 29°47' W 092°11'0 0.0
2016-Aug-18 01:33N 29°47' W 092°11'0 0.0
2016-Aug-18 00:33N 29°47' W 092°11'1 0.6
2016-Aug-17 23:33N 29°46' W 092°11'25 1.5
2016-Aug-17 07:08N 29°25' W 092°26'1016.9
2016-Aug-17 06:34N 29°33' W 092°18'1615.6
2016-Aug-17 05:34N 29°47' W 092°10'1 0.7
2016-Aug-17 04:34N 29°47' W 092°11'0 0.0
2016-Aug-17 03:33N 29°47' W 092°11'0 0.0
2016-Aug-17 02:33N 29°47' W 092°11'0 0.0
2016-Aug-17 01:34N 29°47' W 092°11'0 0.0
2016-Aug-17 00:34N 29°47' W 092°11'1313.2
2016-Aug-16 23:33N 29°35' W 092°18'13 0.7
2016-Aug-16 04:30N 29°47' W 092°11'0 0.0
2016-Aug-16 03:34N 29°47' W 092°11'0 0.0
2016-Aug-16 02:34N 29°47' W 092°11'0 0.0
2016-Aug-16 01:34N 29°47' W 092°11'0 0.0
2016-Aug-16 00:34N 29°47' W 092°11'0 0.0
2016-Aug-15 23:33N 29°47' W 092°11'0 0.0
2016-Aug-15 22:33N 29°47' W 092°11'1413.9
2016-Aug-15 21:32N 29°34' W 092°18'5212.0
2016-Aug-15 17:13N 29°41' W 093°17'711.2
2016-Aug-15 16:33N 29°48' W 093°21'2 1.5
2016-Aug-15 15:33N 29°49' W 093°20'0 0.1
2016-Aug-15 14:33N 29°49' W 093°20'8 8.2
2016-Aug-15 13:33N 29°41' W 093°18'7 0.6
2016-Aug-15 03:13N 29°40' W 093°10'1115.9
2016-Aug-15 02:33N 29°45' W 093°21'4 3.8
2016-Aug-15 01:30N 29°49' W 093°20'4 3.7
2016-Aug-15 00:34N 29°46' W 093°21'56 4.3
2016-Aug-14 11:29N 29°32' W 092°18'0 0.0
2016-Aug-14 10:31N 29°32' W 092°18'0 0.0
2016-Aug-14 09:32N 29°32' W 092°18'0 0.0
2016-Aug-14 08:32N 29°32' W 092°18'0 0.0
2016-Aug-14 07:33N 29°32' W 092°18'0 0.0
2016-Aug-14 06:28N 29°32' W 092°18'0 0.0
2016-Aug-14 04:31N 29°32' W 092°18'0 0.0
2016-Aug-14 03:33N 29°32' W 092°18'0 0.0
2016-Aug-14 02:33N 29°32' W 092°18'0 0.0
2016-Aug-14 01:33N 29°32' W 092°18'0 0.0
2016-Aug-14 00:34N 29°32' W 092°18'0 0.0
2016-Aug-13 23:33N 29°32' W 092°18'0 0.0
2016-Aug-13 22:31N 29°32' W 092°18'0 0.0
2016-Aug-13 21:30N 29°32' W 092°18'  

Dump ship's entire track history